sensor_id;sensor_type;location;lat;lon;timestamp;P1;durP1;ratioP1;P2;durP2;ratioP2
36799;SDS011;22752;51.960;5.886;2023-11-21T00:01:56;10.43;;;6.97;;
36799;SDS011;22752;51.960;5.886;2023-11-21T00:04:22;12.00;;;6.77;;
36799;SDS011;22752;51.960;5.886;2023-11-21T00:06:48;10.03;;;6.00;;
36799;SDS011;22752;51.960;5.886;2023-11-21T00:09:14;9.47;;;6.67;;
36799;SDS011;22752;51.960;5.886;2023-11-21T00:11:40;9.00;;;6.60;;
36799;SDS011;22752;51.960;5.886;2023-11-21T00:14:07;9.83;;;6.43;;
36799;SDS011;22752;51.960;5.886;2023-11-21T00:16:33;8.93;;;6.20;;
36799;SDS011;22752;51.960;5.886;2023-11-21T00:18:59;9.53;;;6.50;;
36799;SDS011;22752;51.960;5.886;2023-11-21T00:21:25;10.93;;;7.03;;
36799;SDS011;22752;51.960;5.886;2023-11-21T00:23:50;11.03;;;7.53;;
36799;SDS011;22752;51.960;5.886;2023-11-21T00:26:16;10.60;;;6.97;;
36799;SDS011;22752;51.960;5.886;2023-11-21T00:28:42;11.83;;;8.17;;
36799;SDS011;22752;51.960;5.886;2023-11-21T00:31:07;11.27;;;7.40;;
36799;SDS011;22752;51.960;5.886;2023-11-21T00:33:33;11.73;;;7.73;;
36799;SDS011;22752;51.960;5.886;2023-11-21T00:35:59;15.27;;;8.03;;
36799;SDS011;22752;51.960;5.886;2023-11-21T00:38:25;11.43;;;7.73;;
36799;SDS011;22752;51.960;5.886;2023-11-21T00:40:52;10.47;;;7.73;;
36799;SDS011;22752;51.960;5.886;2023-11-21T00:43:21;10.07;;;7.63;;
36799;SDS011;22752;51.960;5.886;2023-11-21T00:45:49;10.73;;;7.10;;
36799;SDS011;22752;51.960;5.886;2023-11-21T00:48:16;11.43;;;7.87;;
36799;SDS011;22752;51.960;5.886;2023-11-21T00:50:42;17.43;;;10.23;;
36799;SDS011;22752;51.960;5.886;2023-11-21T00:53:08;18.67;;;10.93;;
36799;SDS011;22752;51.960;5.886;2023-11-21T00:55:34;16.20;;;10.20;;
36799;SDS011;22752;51.960;5.886;2023-11-21T00:58:00;20.53;;;10.30;;
36799;SDS011;22752;51.960;5.886;2023-11-21T01:00:29;18.30;;;11.07;;
36799;SDS011;22752;51.960;5.886;2023-11-21T01:02:55;19.57;;;11.30;;
36799;SDS011;22752;51.960;5.886;2023-11-21T01:05:21;16.93;;;11.03;;
36799;SDS011;22752;51.960;5.886;2023-11-21T01:07:46;17.37;;;10.17;;
36799;SDS011;22752;51.960;5.886;2023-11-21T01:10:12;17.57;;;10.47;;
36799;SDS011;22752;51.960;5.886;2023-11-21T01:12:38;16.00;;;10.90;;
36799;SDS011;22752;51.960;5.886;2023-11-21T01:15:05;17.30;;;11.00;;
36799;SDS011;22752;51.960;5.886;2023-11-21T01:17:32;18.20;;;11.03;;
36799;SDS011;22752;51.960;5.886;2023-11-21T01:19:59;20.63;;;11.37;;
36799;SDS011;22752;51.960;5.886;2023-11-21T01:22:26;16.80;;;10.97;;
36799;SDS011;22752;51.960;5.886;2023-11-21T01:24:52;17.60;;;10.80;;
36799;SDS011;22752;51.960;5.886;2023-11-21T01:27:18;19.07;;;11.57;;
36799;SDS011;22752;51.960;5.886;2023-11-21T01:29:44;16.13;;;10.33;;
36799;SDS011;22752;51.960;5.886;2023-11-21T01:32:10;17.83;;;10.93;;
36799;SDS011;22752;51.960;5.886;2023-11-21T01:34:36;17.30;;;10.80;;
36799;SDS011;22752;51.960;5.886;2023-11-21T01:37:02;15.53;;;9.83;;
36799;SDS011;22752;51.960;5.886;2023-11-21T01:39:29;15.90;;;9.77;;
36799;SDS011;22752;51.960;5.886;2023-11-21T01:41:55;18.27;;;10.80;;
36799;SDS011;22752;51.960;5.886;2023-11-21T01:44:23;16.53;;;10.83;;
36799;SDS011;22752;51.960;5.886;2023-11-21T01:46:52;17.30;;;10.60;;
36799;SDS011;22752;51.960;5.886;2023-11-21T01:49:18;18.10;;;11.20;;
36799;SDS011;22752;51.960;5.886;2023-11-21T01:51:46;16.07;;;10.27;;
36799;SDS011;22752;51.960;5.886;2023-11-21T01:54:14;15.77;;;10.87;;
36799;SDS011;22752;51.960;5.886;2023-11-21T01:56:42;17.10;;;10.53;;
36799;SDS011;22752;51.960;5.886;2023-11-21T01:59:10;14.93;;;9.90;;
36799;SDS011;22752;51.960;5.886;2023-11-21T02:01:39;15.60;;;9.83;;
36799;SDS011;22752;51.960;5.886;2023-11-21T02:04:06;18.20;;;10.50;;
36799;SDS011;22752;51.960;5.886;2023-11-21T02:06:33;16.63;;;10.27;;
36799;SDS011;22752;51.960;5.886;2023-11-21T02:08:59;17.67;;;11.20;;
36799;SDS011;22752;51.960;5.886;2023-11-21T02:11:25;17.87;;;10.63;;
36799;SDS011;22752;51.960;5.886;2023-11-21T02:13:52;20.93;;;12.07;;
36799;SDS011;22752;51.960;5.886;2023-11-21T02:16:19;17.17;;;10.97;;
36799;SDS011;22752;51.960;5.886;2023-11-21T02:18:46;16.07;;;11.33;;
36799;SDS011;22752;51.960;5.886;2023-11-21T02:21:13;15.07;;;9.83;;
36799;SDS011;22752;51.960;5.886;2023-11-21T02:23:39;17.07;;;10.67;;
36799;SDS011;22752;51.960;5.886;2023-11-21T02:26:09;25.47;;;11.73;;
36799;SDS011;22752;51.960;5.886;2023-11-21T02:28:35;17.00;;;11.17;;
36799;SDS011;22752;51.960;5.886;2023-11-21T02:31:01;16.50;;;10.57;;
36799;SDS011;22752;51.960;5.886;2023-11-21T02:33:29;17.43;;;11.23;;
36799;SDS011;22752;51.960;5.886;2023-11-21T02:35:58;15.77;;;10.87;;
36799;SDS011;22752;51.960;5.886;2023-11-21T02:38:25;17.30;;;10.93;;
36799;SDS011;22752;51.960;5.886;2023-11-21T02:40:50;17.63;;;11.20;;
36799;SDS011;22752;51.960;5.886;2023-11-21T02:43:16;18.30;;;11.17;;
36799;SDS011;22752;51.960;5.886;2023-11-21T02:45:41;18.27;;;12.13;;
36799;SDS011;22752;51.960;5.886;2023-11-21T02:48:07;20.97;;;12.17;;
36799;SDS011;22752;51.960;5.886;2023-11-21T02:50:33;24.57;;;14.07;;
36799;SDS011;22752;51.960;5.886;2023-11-21T02:53:00;23.17;;;12.77;;
36799;SDS011;22752;51.960;5.886;2023-11-21T02:55:27;21.20;;;12.47;;
36799;SDS011;22752;51.960;5.886;2023-11-21T02:57:53;25.17;;;13.63;;
36799;SDS011;22752;51.960;5.886;2023-11-21T03:00:21;25.57;;;14.07;;
36799;SDS011;22752;51.960;5.886;2023-11-21T03:02:49;31.70;;;15.83;;
36799;SDS011;22752;51.960;5.886;2023-11-21T03:05:14;24.77;;;14.13;;
36799;SDS011;22752;51.960;5.886;2023-11-21T03:07:40;29.43;;;15.43;;
36799;SDS011;22752;51.960;5.886;2023-11-21T03:10:09;40.83;;;19.43;;
36799;SDS011;22752;51.960;5.886;2023-11-21T03:12:35;41.73;;;19.70;;
36799;SDS011;22752;51.960;5.886;2023-11-21T03:15:05;38.83;;;20.03;;
36799;SDS011;22752;51.960;5.886;2023-11-21T03:17:31;35.80;;;18.93;;
36799;SDS011;22752;51.960;5.886;2023-11-21T03:19:59;34.30;;;18.73;;
36799;SDS011;22752;51.960;5.886;2023-11-21T03:22:25;34.37;;;17.67;;
36799;SDS011;22752;51.960;5.886;2023-11-21T03:24:51;37.40;;;17.87;;
36799;SDS011;22752;51.960;5.886;2023-11-21T03:27:17;32.33;;;17.07;;
36799;SDS011;22752;51.960;5.886;2023-11-21T03:29:43;33.63;;;17.90;;
36799;SDS011;22752;51.960;5.886;2023-11-21T03:32:10;31.73;;;16.87;;
36799;SDS011;22752;51.960;5.886;2023-11-21T03:34:42;28.83;;;15.73;;
36799;SDS011;22752;51.960;5.886;2023-11-21T03:37:21;38.17;;;17.90;;
36799;SDS011;22752;51.960;5.886;2023-11-21T03:39:47;40.10;;;18.27;;
36799;SDS011;22752;51.960;5.886;2023-11-21T03:42:13;37.20;;;18.30;;
36799;SDS011;22752;51.960;5.886;2023-11-21T03:44:38;34.50;;;18.17;;
36799;SDS011;22752;51.960;5.886;2023-11-21T03:47:04;27.90;;;16.50;;
36799;SDS011;22752;51.960;5.886;2023-11-21T03:49:30;28.63;;;16.23;;
36799;SDS011;22752;51.960;5.886;2023-11-21T03:51:56;31.50;;;16.43;;
36799;SDS011;22752;51.960;5.886;2023-11-21T03:54:21;28.13;;;16.03;;
36799;SDS011;22752;51.960;5.886;2023-11-21T03:56:47;31.13;;;16.53;;
36799;SDS011;22752;51.960;5.886;2023-11-21T03:59:13;36.87;;;17.87;;
36799;SDS011;22752;51.960;5.886;2023-11-21T04:01:38;33.97;;;17.47;;
36799;SDS011;22752;51.960;5.886;2023-11-21T04:04:04;32.13;;;17.87;;
36799;SDS011;22752;51.960;5.886;2023-11-21T04:06:29;25.03;;;15.97;;
36799;SDS011;22752;51.960;5.886;2023-11-21T04:08:57;27.43;;;18.37;;
36799;SDS011;22752;51.960;5.886;2023-11-21T04:11:23;34.50;;;18.50;;
36799;SDS011;22752;51.960;5.886;2023-11-21T04:13:49;37.47;;;18.80;;
36799;SDS011;22752;51.960;5.886;2023-11-21T04:16:14;29.37;;;17.57;;
36799;SDS011;22752;51.960;5.886;2023-11-21T04:18:40;25.33;;;15.63;;
36799;SDS011;22752;51.960;5.886;2023-11-21T04:21:06;25.03;;;15.30;;
36799;SDS011;22752;51.960;5.886;2023-11-21T04:23:32;24.77;;;15.20;;
36799;SDS011;22752;51.960;5.886;2023-11-21T04:25:58;25.70;;;15.77;;
36799;SDS011;22752;51.960;5.886;2023-11-21T04:28:24;27.10;;;15.40;;
36799;SDS011;22752;51.960;5.886;2023-11-21T04:30:50;27.23;;;16.50;;
36799;SDS011;22752;51.960;5.886;2023-11-21T04:33:16;32.40;;;17.00;;
36799;SDS011;22752;51.960;5.886;2023-11-21T04:35:42;31.23;;;17.43;;
36799;SDS011;22752;51.960;5.886;2023-11-21T04:38:08;29.00;;;16.07;;
36799;SDS011;22752;51.960;5.886;2023-11-21T04:40:33;22.73;;;15.47;;
36799;SDS011;22752;51.960;5.886;2023-11-21T04:42:59;23.43;;;14.33;;
36799;SDS011;22752;51.960;5.886;2023-11-21T04:45:24;26.53;;;15.40;;
36799;SDS011;22752;51.960;5.886;2023-11-21T04:47:50;31.70;;;17.40;;
36799;SDS011;22752;51.960;5.886;2023-11-21T04:50:17;25.00;;;14.90;;
36799;SDS011;22752;51.960;5.886;2023-11-21T04:52:44;27.17;;;14.17;;
36799;SDS011;22752;51.960;5.886;2023-11-21T04:55:09;22.60;;;14.10;;
36799;SDS011;22752;51.960;5.886;2023-11-21T04:57:38;23.43;;;15.03;;
36799;SDS011;22752;51.960;5.886;2023-11-21T05:00:08;21.85;;;14.18;;
36799;SDS011;22752;51.960;5.886;2023-11-21T05:02:34;24.73;;;14.23;;
36799;SDS011;22752;51.960;5.886;2023-11-21T05:05:00;24.20;;;14.57;;
36799;SDS011;22752;51.960;5.886;2023-11-21T05:07:27;23.20;;;15.07;;
36799;SDS011;22752;51.960;5.886;2023-11-21T05:09:55;24.53;;;14.83;;
36799;SDS011;22752;51.960;5.886;2023-11-21T05:12:24;25.87;;;14.80;;
36799;SDS011;22752;51.960;5.886;2023-11-21T05:14:50;22.07;;;13.43;;
36799;SDS011;22752;51.960;5.886;2023-11-21T05:17:16;24.00;;;14.13;;
36799;SDS011;22752;51.960;5.886;2023-11-21T05:19:42;28.27;;;16.63;;
36799;SDS011;22752;51.960;5.886;2023-11-21T05:22:10;26.60;;;16.90;;
36799;SDS011;22752;51.960;5.886;2023-11-21T05:24:37;23.97;;;14.97;;
36799;SDS011;22752;51.960;5.886;2023-11-21T05:27:04;23.23;;;14.93;;
36799;SDS011;22752;51.960;5.886;2023-11-21T05:29:29;25.13;;;14.67;;
36799;SDS011;22752;51.960;5.886;2023-11-21T05:31:55;20.40;;;13.90;;
36799;SDS011;22752;51.960;5.886;2023-11-21T05:34:21;21.83;;;13.80;;
36799;SDS011;22752;51.960;5.886;2023-11-21T05:36:48;23.63;;;14.27;;
36799;SDS011;22752;51.960;5.886;2023-11-21T05:39:15;22.47;;;13.90;;
36799;SDS011;22752;51.960;5.886;2023-11-21T05:41:42;20.70;;;13.47;;
36799;SDS011;22752;51.960;5.886;2023-11-21T05:44:08;20.40;;;13.27;;
36799;SDS011;22752;51.960;5.886;2023-11-21T05:46:34;20.80;;;14.13;;
36799;SDS011;22752;51.960;5.886;2023-11-21T05:49:00;21.30;;;13.20;;
36799;SDS011;22752;51.960;5.886;2023-11-21T05:51:25;22.00;;;12.73;;
36799;SDS011;22752;51.960;5.886;2023-11-21T05:53:51;18.20;;;12.37;;
36799;SDS011;22752;51.960;5.886;2023-11-21T05:56:16;19.17;;;12.23;;
36799;SDS011;22752;51.960;5.886;2023-11-21T05:58:43;15.97;;;11.40;;
36799;SDS011;22752;51.960;5.886;2023-11-21T06:01:08;26.67;;;15.70;;
36799;SDS011;22752;51.960;5.886;2023-11-21T06:03:37;21.43;;;14.07;;
36799;SDS011;22752;51.960;5.886;2023-11-21T06:06:03;21.27;;;14.23;;
36799;SDS011;22752;51.960;5.886;2023-11-21T06:08:29;19.67;;;13.47;;
36799;SDS011;22752;51.960;5.886;2023-11-21T06:10:55;20.70;;;12.87;;
36799;SDS011;22752;51.960;5.886;2023-11-21T06:13:21;23.33;;;14.17;;
36799;SDS011;22752;51.960;5.886;2023-11-21T06:15:49;20.97;;;13.43;;
36799;SDS011;22752;51.960;5.886;2023-11-21T06:18:16;18.00;;;12.23;;
36799;SDS011;22752;51.960;5.886;2023-11-21T06:20:44;19.90;;;13.03;;
36799;SDS011;22752;51.960;5.886;2023-11-21T06:23:10;22.17;;;13.77;;
36799;SDS011;22752;51.960;5.886;2023-11-21T06:25:36;19.43;;;13.30;;
36799;SDS011;22752;51.960;5.886;2023-11-21T06:28:02;21.50;;;13.93;;
36799;SDS011;22752;51.960;5.886;2023-11-21T06:30:27;21.13;;;14.13;;
36799;SDS011;22752;51.960;5.886;2023-11-21T06:32:54;24.10;;;14.73;;
36799;SDS011;22752;51.960;5.886;2023-11-21T06:35:21;22.30;;;14.37;;
36799;SDS011;22752;51.960;5.886;2023-11-21T06:37:46;24.53;;;15.83;;
36799;SDS011;22752;51.960;5.886;2023-11-21T06:40:16;19.97;;;13.67;;
36799;SDS011;22752;51.960;5.886;2023-11-21T06:42:45;20.40;;;13.80;;
36799;SDS011;22752;51.960;5.886;2023-11-21T06:45:12;25.27;;;14.67;;
36799;SDS011;22752;51.960;5.886;2023-11-21T06:47:38;24.17;;;14.93;;
36799;SDS011;22752;51.960;5.886;2023-11-21T06:50:04;23.37;;;15.47;;
36799;SDS011;22752;51.960;5.886;2023-11-21T06:52:32;28.97;;;14.50;;
36799;SDS011;22752;51.960;5.886;2023-11-21T06:54:57;23.27;;;14.53;;
36799;SDS011;22752;51.960;5.886;2023-11-21T06:57:23;22.83;;;14.23;;
36799;SDS011;22752;51.960;5.886;2023-11-21T06:59:49;22.33;;;14.93;;
36799;SDS011;22752;51.960;5.886;2023-11-21T07:02:15;26.77;;;15.97;;
36799;SDS011;22752;51.960;5.886;2023-11-21T07:04:43;26.70;;;15.93;;
36799;SDS011;22752;51.960;5.886;2023-11-21T07:07:12;28.17;;;17.50;;
36799;SDS011;22752;51.960;5.886;2023-11-21T07:09:38;31.83;;;18.07;;
36799;SDS011;22752;51.960;5.886;2023-11-21T07:12:04;37.63;;;20.80;;
36799;SDS011;22752;51.960;5.886;2023-11-21T07:14:32;34.20;;;20.07;;
36799;SDS011;22752;51.960;5.886;2023-11-21T07:16:59;32.53;;;20.07;;
36799;SDS011;22752;51.960;5.886;2023-11-21T07:19:24;29.03;;;18.80;;
36799;SDS011;22752;51.960;5.886;2023-11-21T07:21:50;30.03;;;18.33;;
36799;SDS011;22752;51.960;5.886;2023-11-21T07:24:16;30.53;;;17.27;;
36799;SDS011;22752;51.960;5.886;2023-11-21T07:26:42;28.30;;;17.70;;
36799;SDS011;22752;51.960;5.886;2023-11-21T07:29:08;35.47;;;18.57;;
36799;SDS011;22752;51.960;5.886;2023-11-21T07:31:33;30.20;;;17.70;;
36799;SDS011;22752;51.960;5.886;2023-11-21T07:33:59;29.00;;;16.57;;
36799;SDS011;22752;51.960;5.886;2023-11-21T07:36:25;29.97;;;16.37;;
36799;SDS011;22752;51.960;5.886;2023-11-21T07:38:51;31.07;;;18.17;;
36799;SDS011;22752;51.960;5.886;2023-11-21T07:41:17;27.57;;;16.97;;
36799;SDS011;22752;51.960;5.886;2023-11-21T07:43:44;29.50;;;18.30;;
36799;SDS011;22752;51.960;5.886;2023-11-21T07:46:11;29.27;;;17.87;;
36799;SDS011;22752;51.960;5.886;2023-11-21T07:48:39;30.50;;;18.87;;
36799;SDS011;22752;51.960;5.886;2023-11-21T07:51:07;39.40;;;22.40;;
36799;SDS011;22752;51.960;5.886;2023-11-21T07:53:33;36.97;;;20.80;;
36799;SDS011;22752;51.960;5.886;2023-11-21T07:56:02;48.53;;;26.67;;
36799;SDS011;22752;51.960;5.886;2023-11-21T07:58:29;35.87;;;22.73;;
36799;SDS011;22752;51.960;5.886;2023-11-21T08:00:55;32.27;;;20.00;;
36799;SDS011;22752;51.960;5.886;2023-11-21T08:03:21;32.97;;;19.33;;
36799;SDS011;22752;51.960;5.886;2023-11-21T08:05:47;32.53;;;18.43;;
36799;SDS011;22752;51.960;5.886;2023-11-21T08:08:13;35.67;;;19.63;;
36799;SDS011;22752;51.960;5.886;2023-11-21T08:10:38;32.17;;;17.87;;
36799;SDS011;22752;51.960;5.886;2023-11-21T08:13:05;28.47;;;17.37;;
36799;SDS011;22752;51.960;5.886;2023-11-21T08:15:34;30.90;;;18.57;;
36799;SDS011;22752;51.960;5.886;2023-11-21T08:18:01;28.73;;;17.10;;
36799;SDS011;22752;51.960;5.886;2023-11-21T08:20:27;41.43;;;22.23;;
36799;SDS011;22752;51.960;5.886;2023-11-21T08:22:53;34.60;;;20.00;;
36799;SDS011;22752;51.960;5.886;2023-11-21T08:25:21;29.63;;;17.80;;
36799;SDS011;22752;51.960;5.886;2023-11-21T08:27:47;29.83;;;18.63;;
36799;SDS011;22752;51.960;5.886;2023-11-21T08:30:13;30.17;;;17.00;;
36799;SDS011;22752;51.960;5.886;2023-11-21T08:32:39;32.07;;;19.03;;
36799;SDS011;22752;51.960;5.886;2023-11-21T08:35:07;28.07;;;17.10;;
36799;SDS011;22752;51.960;5.886;2023-11-21T08:37:32;34.33;;;17.63;;
36799;SDS011;22752;51.960;5.886;2023-11-21T08:40:02;33.43;;;17.63;;
36799;SDS011;22752;51.960;5.886;2023-11-21T08:42:29;31.93;;;17.90;;
36799;SDS011;22752;51.960;5.886;2023-11-21T08:44:55;35.43;;;19.30;;
36799;SDS011;22752;51.960;5.886;2023-11-21T08:47:22;32.60;;;19.70;;
36799;SDS011;22752;51.960;5.886;2023-11-21T08:49:49;35.17;;;18.13;;
36799;SDS011;22752;51.960;5.886;2023-11-21T08:52:18;38.80;;;20.33;;
36799;SDS011;22752;51.960;5.886;2023-11-21T08:54:48;34.67;;;18.33;;
36799;SDS011;22752;51.960;5.886;2023-11-21T08:57:20;35.47;;;18.60;;
36799;SDS011;22752;51.960;5.886;2023-11-21T08:59:49;34.67;;;18.20;;
36799;SDS011;22752;51.960;5.886;2023-11-21T09:02:20;38.03;;;19.67;;
36799;SDS011;22752;51.960;5.886;2023-11-21T09:04:48;40.37;;;20.93;;
36799;SDS011;22752;51.960;5.886;2023-11-21T09:07:15;43.07;;;21.53;;
36799;SDS011;22752;51.960;5.886;2023-11-21T09:09:41;49.83;;;24.70;;
36799;SDS011;22752;51.960;5.886;2023-11-21T09:12:07;35.23;;;20.87;;
36799;SDS011;22752;51.960;5.886;2023-11-21T09:14:32;47.13;;;24.20;;
36799;SDS011;22752;51.960;5.886;2023-11-21T09:16:58;40.50;;;21.63;;
36799;SDS011;22752;51.960;5.886;2023-11-21T09:19:24;43.37;;;21.67;;
36799;SDS011;22752;51.960;5.886;2023-11-21T09:21:50;39.43;;;21.93;;
36799;SDS011;22752;51.960;5.886;2023-11-21T09:24:15;38.90;;;20.93;;
36799;SDS011;22752;51.960;5.886;2023-11-21T09:26:41;36.50;;;19.37;;
36799;SDS011;22752;51.960;5.886;2023-11-21T09:29:07;34.40;;;19.17;;
36799;SDS011;22752;51.960;5.886;2023-11-21T09:31:33;34.80;;;19.00;;
36799;SDS011;22752;51.960;5.886;2023-11-21T09:33:59;36.77;;;20.07;;
36799;SDS011;22752;51.960;5.886;2023-11-21T09:36:24;38.13;;;21.30;;
36799;SDS011;22752;51.960;5.886;2023-11-21T09:38:52;48.93;;;23.70;;
36799;SDS011;22752;51.960;5.886;2023-11-21T09:41:34;39.80;;;21.70;;
36799;SDS011;22752;51.960;5.886;2023-11-21T09:44:09;43.73;;;21.53;;
36799;SDS011;22752;51.960;5.886;2023-11-21T09:46:37;46.37;;;23.67;;
36799;SDS011;22752;51.960;5.886;2023-11-21T09:49:07;46.03;;;23.07;;
36799;SDS011;22752;51.960;5.886;2023-11-21T09:51:38;46.97;;;24.23;;
36799;SDS011;22752;51.960;5.886;2023-11-21T09:54:06;42.73;;;22.77;;
36799;SDS011;22752;51.960;5.886;2023-11-21T09:56:34;43.77;;;23.23;;
36799;SDS011;22752;51.960;5.886;2023-11-21T09:59:00;40.07;;;22.50;;
36799;SDS011;22752;51.960;5.886;2023-11-21T10:01:33;44.47;;;23.85;;
36799;SDS011;22752;51.960;5.886;2023-11-21T10:04:00;47.60;;;24.33;;
36799;SDS011;22752;51.960;5.886;2023-11-21T10:06:26;57.30;;;27.20;;
36799;SDS011;22752;51.960;5.886;2023-11-21T10:08:53;64.87;;;28.53;;
36799;SDS011;22752;51.960;5.886;2023-11-21T10:11:22;48.40;;;26.33;;
36799;SDS011;22752;51.960;5.886;2023-11-21T10:13:50;48.80;;;24.37;;
36799;SDS011;22752;51.960;5.886;2023-11-21T10:16:19;50.40;;;25.30;;
36799;SDS011;22752;51.960;5.886;2023-11-21T10:18:51;60.90;;;30.00;;
36799;SDS011;22752;51.960;5.886;2023-11-21T10:21:19;62.07;;;31.03;;
36799;SDS011;22752;51.960;5.886;2023-11-21T10:23:45;71.57;;;31.80;;
36799;SDS011;22752;51.960;5.886;2023-11-21T10:26:11;65.20;;;31.40;;
36799;SDS011;22752;51.960;5.886;2023-11-21T10:28:41;44.03;;;25.23;;
36799;SDS011;22752;51.960;5.886;2023-11-21T10:31:31;42.90;;;24.30;;
36799;SDS011;22752;51.960;5.886;2023-11-21T10:34:14;55.67;;;26.97;;
36799;SDS011;22752;51.960;5.886;2023-11-21T10:36:40;53.40;;;27.47;;
36799;SDS011;22752;51.960;5.886;2023-11-21T10:39:06;46.47;;;27.67;;
36799;SDS011;22752;51.960;5.886;2023-11-21T10:41:32;43.57;;;23.87;;
36799;SDS011;22752;51.960;5.886;2023-11-21T10:43:58;48.93;;;26.87;;
36799;SDS011;22752;51.960;5.886;2023-11-21T10:46:23;40.27;;;23.67;;
36799;SDS011;22752;51.960;5.886;2023-11-21T10:48:54;38.03;;;22.47;;
36799;SDS011;22752;51.960;5.886;2023-11-21T10:51:21;42.63;;;23.37;;
36799;SDS011;22752;51.960;5.886;2023-11-21T10:53:49;34.20;;;19.50;;
36799;SDS011;22752;51.960;5.886;2023-11-21T10:56:16;38.43;;;21.57;;
36799;SDS011;22752;51.960;5.886;2023-11-21T10:58:46;39.97;;;22.90;;
36799;SDS011;22752;51.960;5.886;2023-11-21T11:01:13;40.13;;;21.43;;
36799;SDS011;22752;51.960;5.886;2023-11-21T11:03:42;36.42;;;20.85;;
36799;SDS011;22752;51.960;5.886;2023-11-21T11:06:09;35.23;;;20.73;;
36799;SDS011;22752;51.960;5.886;2023-11-21T11:08:37;30.43;;;18.50;;
36799;SDS011;22752;51.960;5.886;2023-11-21T11:11:04;26.63;;;16.57;;
36799;SDS011;22752;51.960;5.886;2023-11-21T11:13:30;29.13;;;16.97;;
36799;SDS011;22752;51.960;5.886;2023-11-21T11:15:59;27.57;;;16.17;;
36799;SDS011;22752;51.960;5.886;2023-11-21T11:18:32;25.33;;;15.73;;
36799;SDS011;22752;51.960;5.886;2023-11-21T11:29:06;27.07;;;16.33;;
36799;SDS011;22752;51.960;5.886;2023-11-21T11:34:41;31.27;;;17.43;;
36799;SDS011;22752;51.960;5.886;2023-11-21T11:37:12;27.27;;;15.87;;
36799;SDS011;22752;51.960;5.886;2023-11-21T11:39:41;30.37;;;17.03;;
36799;SDS011;22752;51.960;5.886;2023-11-21T11:42:13;25.63;;;15.20;;
36799;SDS011;22752;51.960;5.886;2023-11-21T11:47:29;24.07;;;14.33;;
36799;SDS011;22752;51.960;5.886;2023-11-21T11:52:41;28.77;;;15.53;;
36799;SDS011;22752;51.960;5.886;2023-11-21T11:55:09;30.63;;;17.13;;
36799;SDS011;22752;51.960;5.886;2023-11-21T11:57:37;25.10;;;14.77;;
36799;SDS011;22752;51.960;5.886;2023-11-21T12:03:02;26.20;;;16.10;;
36799;SDS011;22752;51.960;5.886;2023-11-21T12:05:30;28.20;;;16.60;;
36799;SDS011;22752;51.960;5.886;2023-11-21T12:08:07;24.17;;;15.47;;
36799;SDS011;22752;51.960;5.886;2023-11-21T12:10:34;25.33;;;15.03;;
36799;SDS011;22752;51.960;5.886;2023-11-21T12:13:02;22.93;;;14.63;;
36799;SDS011;22752;51.960;5.886;2023-11-21T12:15:35;22.00;;;13.73;;
36799;SDS011;22752;51.960;5.886;2023-11-21T12:18:02;22.97;;;14.60;;
36799;SDS011;22752;51.960;5.886;2023-11-21T12:20:31;20.60;;;13.60;;
36799;SDS011;22752;51.960;5.886;2023-11-21T12:22:58;18.90;;;11.23;;
36799;SDS011;22752;51.960;5.886;2023-11-21T12:25:26;21.60;;;12.83;;
36799;SDS011;22752;51.960;5.886;2023-11-21T12:27:59;16.40;;;10.73;;
36799;SDS011;22752;51.960;5.886;2023-11-21T12:30:26;19.70;;;11.93;;
36799;SDS011;22752;51.960;5.886;2023-11-21T12:32:55;18.87;;;12.47;;
36799;SDS011;22752;51.960;5.886;2023-11-21T12:35:32;23.03;;;14.07;;
36799;SDS011;22752;51.960;5.886;2023-11-21T12:37:59;25.60;;;15.40;;
36799;SDS011;22752;51.960;5.886;2023-11-21T12:40:27;28.07;;;16.83;;
36799;SDS011;22752;51.960;5.886;2023-11-21T12:42:55;31.60;;;17.77;;
36799;SDS011;22752;51.960;5.886;2023-11-21T12:45:28;29.27;;;17.00;;
36799;SDS011;22752;51.960;5.886;2023-11-21T12:50:25;29.90;;;17.10;;
36799;SDS011;22752;51.960;5.886;2023-11-21T12:53:06;26.30;;;16.60;;
36799;SDS011;22752;51.960;5.886;2023-11-21T12:55:41;27.53;;;15.77;;
36799;SDS011;22752;51.960;5.886;2023-11-21T12:58:14;24.70;;;14.97;;
36799;SDS011;22752;51.960;5.886;2023-11-21T13:00:47;30.50;;;18.77;;
36799;SDS011;22752;51.960;5.886;2023-11-21T13:03:15;34.37;;;20.27;;
36799;SDS011;22752;51.960;5.886;2023-11-21T13:05:43;30.73;;;19.23;;
36799;SDS011;22752;51.960;5.886;2023-11-21T13:08:10;35.23;;;21.23;;
36799;SDS011;22752;51.960;5.886;2023-11-21T13:10:38;31.43;;;20.10;;
36799;SDS011;22752;51.960;5.886;2023-11-21T13:13:07;34.43;;;20.27;;
36799;SDS011;22752;51.960;5.886;2023-11-21T13:15:36;38.53;;;22.30;;
36799;SDS011;22752;51.960;5.886;2023-11-21T13:18:05;34.13;;;21.43;;
36799;SDS011;22752;51.960;5.886;2023-11-21T13:20:32;36.63;;;21.53;;
36799;SDS011;22752;51.960;5.886;2023-11-21T13:22:58;38.60;;;22.27;;
36799;SDS011;22752;51.960;5.886;2023-11-21T13:25:26;36.53;;;21.33;;
36799;SDS011;22752;51.960;5.886;2023-11-21T13:27:55;42.23;;;23.73;;
36799;SDS011;22752;51.960;5.886;2023-11-21T13:30:22;39.80;;;22.07;;
36799;SDS011;22752;51.960;5.886;2023-11-21T13:32:52;37.53;;;23.27;;
36799;SDS011;22752;51.960;5.886;2023-11-21T13:35:18;39.93;;;23.00;;
36799;SDS011;22752;51.960;5.886;2023-11-21T13:37:55;33.87;;;20.90;;
36799;SDS011;22752;51.960;5.886;2023-11-21T13:40:25;35.93;;;20.50;;
36799;SDS011;22752;51.960;5.886;2023-11-21T13:42:52;34.03;;;19.63;;
36799;SDS011;22752;51.960;5.886;2023-11-21T13:45:20;33.73;;;20.23;;
36799;SDS011;22752;51.960;5.886;2023-11-21T13:47:48;34.27;;;20.47;;
36799;SDS011;22752;51.960;5.886;2023-11-21T13:50:16;32.70;;;19.30;;
36799;SDS011;22752;51.960;5.886;2023-11-21T13:52:47;30.80;;;17.90;;
36799;SDS011;22752;51.960;5.886;2023-11-21T13:55:14;27.50;;;17.13;;
36799;SDS011;22752;51.960;5.886;2023-11-21T13:57:44;31.40;;;17.53;;
36799;SDS011;22752;51.960;5.886;2023-11-21T14:00:14;28.57;;;16.23;;
36799;SDS011;22752;51.960;5.886;2023-11-21T14:03:00;28.17;;;16.63;;
36799;SDS011;22752;51.960;5.886;2023-11-21T14:05:31;26.37;;;16.10;;
36799;SDS011;22752;51.960;5.886;2023-11-21T14:07:58;22.77;;;14.77;;
36799;SDS011;22752;51.960;5.886;2023-11-21T14:10:30;25.40;;;15.60;;
36799;SDS011;22752;51.960;5.886;2023-11-21T14:13:05;24.73;;;15.73;;
36799;SDS011;22752;51.960;5.886;2023-11-21T14:15:31;27.63;;;16.00;;
36799;SDS011;22752;51.960;5.886;2023-11-21T14:18:02;24.50;;;14.43;;
36799;SDS011;22752;51.960;5.886;2023-11-21T14:20:32;23.57;;;13.07;;
36799;SDS011;22752;51.960;5.886;2023-11-21T14:22:58;22.47;;;13.50;;
36799;SDS011;22752;51.960;5.886;2023-11-21T14:25:24;22.27;;;13.63;;
36799;SDS011;22752;51.960;5.886;2023-11-21T14:27:50;25.33;;;14.47;;
36799;SDS011;22752;51.960;5.886;2023-11-21T14:30:15;23.67;;;13.60;;
36799;SDS011;22752;51.960;5.886;2023-11-21T14:32:44;22.97;;;14.67;;
36799;SDS011;22752;51.960;5.886;2023-11-21T14:35:10;18.93;;;12.57;;
36799;SDS011;22752;51.960;5.886;2023-11-21T14:37:35;20.77;;;13.10;;
36799;SDS011;22752;51.960;5.886;2023-11-21T14:40:01;23.20;;;14.53;;
36799;SDS011;22752;51.960;5.886;2023-11-21T14:42:29;22.30;;;14.20;;
36799;SDS011;22752;51.960;5.886;2023-11-21T14:44:55;23.57;;;13.53;;
36799;SDS011;22752;51.960;5.886;2023-11-21T14:47:25;22.53;;;14.03;;